Time;durP1;ratioP1;P1;durP2;ratioP2;P2;SDS_P1;SDS_P2;PMS_P1;PMS_P2;Temp;Humidity;BMP_temperature;BMP_pressure;BME280_temperature;BME280_humidity;BME280_pressure;Samples;Min_cycle;Max_cycle;Signal;HPM_P1;HPM_P2
2021/10/17 00:01:33;;;;;;;40.92;18.02;;;;;;;-149.78;100.00;50354.09;5052382;28;20744;-70
2021/10/17 00:03:59;;;;;;;41.53;19.08;;;;;;;-149.78;100.00;50346.28;5059255;28;20135;-70
2021/10/17 00:06:28;;;;;;;43.15;19.80;;;;;;;-149.78;100.00;50338.44;5065874;28;20100;-70
2021/10/17 00:08:55;;;;;;;43.75;18.73;;;;;;;-149.78;100.00;50358.00;5050885;28;20036;-71
2021/10/17 00:11:21;;;;;;;41.80;18.13;;;;;;;-149.78;100.00;50322.81;5052129;28;20033;-70
2021/10/17 00:13:47;;;;;;;45.72;18.80;;;;;;;-149.78;100.00;50330.63;5044763;28;20638;-71
2021/10/17 00:16:13;;;;;;;39.08;18.15;;;;;;;-149.78;100.00;50334.53;5063898;28;20127;-74
2021/10/17 00:18:39;;;;;;;40.65;19.33;;;;;;;-149.78;100.00;50359.97;5065649;28;20070;-74
2021/10/17 00:21:05;;;;;;;42.30;20.48;;;;;;;-149.78;100.00;50389.31;5046190;28;20081;-70
2021/10/17 00:23:33;;;;;;;44.85;20.02;;;;;;;-149.78;100.00;50369.75;5057291;28;20551;-70
2021/10/17 00:25:59;;;;;;;38.80;19.35;;;;;;;-149.78;100.00;50361.91;5058231;28;20029;-71
2021/10/17 00:28:25;;;;;;;39.17;19.52;;;;;;;-149.78;100.00;50358.00;5075153;28;20043;-74
2021/10/17 00:30:51;;;;;;;46.53;21.30;;;;;;;-149.78;100.00;50354.09;5044252;28;20037;-70
2021/10/17 00:33:16;;;;;;;46.17;21.92;;;;;;;-149.78;100.00;50344.31;5049523;28;20048;-70
2021/10/17 00:35:43;;;;;;;49.85;21.85;;;;;;;-149.78;100.00;50397.13;5057850;28;20044;-70
2021/10/17 00:38:08;;;;;;;43.33;21.30;;;;;;;-149.78;100.00;50361.91;5049203;28;20037;-74
2021/10/17 00:40:34;;;;;;;49.03;22.63;;;;;;;-149.78;100.00;50350.19;5051879;28;20033;-73
2021/10/17 00:43:01;;;;;;;53.45;23.13;;;;;;;-149.78;100.00;50365.84;5051798;28;20082;-70
2021/10/17 00:45:32;;;;;;;43.78;22.17;;;;;;;-149.78;100.00;50338.44;5032753;28;20029;-73
2021/10/17 00:48:00;;;;;;;54.05;22.88;;;;;;;-149.78;100.00;50342.38;5050826;28;20504;-74
2021/10/17 00:50:27;;;;;;;49.70;21.73;;;;;;;-149.78;100.00;50350.19;5050275;28;20032;-74
2021/10/17 00:52:53;;;;;;;51.78;23.13;;;;;;;-149.78;100.00;50338.44;5063601;28;20028;-74
2021/10/17 00:55:20;;;;;;;49.20;22.10;;;;;;;-149.78;100.00;50332.59;5034498;28;20106;-70
2021/10/17 00:57:46;;;;;;;49.28;22.23;;;;;;;-149.78;100.00;50354.09;5059912;28;20416;-74
2021/10/17 01:00:13;;;;;;;49.55;23.17;;;;;;;-149.78;100.00;50373.66;5038537;28;20028;-74
2021/10/17 01:02:39;;;;;;;53.63;23.10;;;;;;;-149.78;100.00;50350.19;5066303;28;20441;-73
2021/10/17 01:05:12;;;;;;;50.40;23.13;;;;;;;-149.78;100.00;50361.91;5055969;28;20159;-74
2021/10/17 01:07:38;;;;;;;43.95;21.40;;;;;;;-149.78;100.00;50326.72;5039614;28;20045;-70
2021/10/17 01:10:04;;;;;;;49.60;21.92;;;;;;;-149.78;100.00;50359.97;5044343;28;20040;-70
2021/10/17 01:12:30;;;;;;;51.63;22.63;;;;;;;-149.78;100.00;50397.13;5040602;28;20033;-70
2021/10/17 01:14:55;;;;;;;47.00;21.67;;;;;;;-149.78;100.00;50369.75;5056368;28;20388;-70
2021/10/17 01:17:21;;;;;;;50.35;22.63;;;;;;;-149.78;100.00;50354.09;5051024;28;20033;-74
2021/10/17 01:19:47;;;;;;;49.97;22.00;;;;;;;-149.78;100.00;50369.75;5049733;28;20028;-70
2021/10/17 01:22:14;;;;;;;45.58;21.20;;;;;;;-149.78;100.00;50365.84;5055081;28;20036;-70
2021/10/17 01:24:40;;;;;;;47.80;22.40;;;;;;;-149.78;100.00;50383.44;5049888;28;20029;-70
2021/10/17 01:27:05;;;;;;;49.92;22.67;;;;;;;-149.78;100.00;50326.72;5053624;28;20036;-70
2021/10/17 01:29:31;;;;;;;50.97;20.98;;;;;;;-149.78;100.00;50356.06;5043523;28;21269;-73
2021/10/17 01:31:57;;;;;;;52.10;22.95;;;;;;;-149.78;100.00;50324.75;5046896;28;20163;-71
2021/10/17 01:34:26;;;;;;;45.63;20.42;;;;;;;-149.78;100.00;50338.44;5043092;28;20124;-73
2021/10/17 01:36:52;;;;;;;42.75;20.92;;;;;;;-149.78;100.00;50328.69;5049925;28;20024;-74
2021/10/17 01:39:20;;;;;;;45.22;21.50;;;;;;;-149.78;100.00;50342.38;5057596;28;20047;-73
2021/10/17 01:41:49;;;;;;;42.35;21.35;;;;;;;-149.78;100.00;50314.97;5033040;28;20045;-74
2021/10/17 01:44:27;;;;;;;43.33;21.00;;;;;;;-149.78;100.00;50342.38;5062323;28;20050;-71
2021/10/17 01:46:54;;;;;;;44.15;21.50;;;;;;;-149.78;100.00;50354.09;5077990;28;20028;-70
2021/10/17 01:49:21;;;;;;;45.83;21.48;;;;;;;-149.78;100.00;50363.88;5052888;28;22727;-74
2021/10/17 01:51:46;;;;;;;43.42;20.95;;;;;;;-149.78;100.00;50338.44;5066926;28;20505;-70
2021/10/17 01:54:12;;;;;;;47.90;21.42;;;;;;;-149.78;100.00;50336.50;5061064;28;20047;-73
2021/10/17 01:56:40;;;;;;;45.63;21.15;;;;;;;-149.78;100.00;50334.53;5064372;28;20036;-70
2021/10/17 01:59:06;;;;;;;50.95;20.73;;;;;;;-149.78;100.00;50369.75;5058576;28;20037;-70
2021/10/17 02:01:32;;;;;;;46.75;21.27;;;;;;;-149.78;100.00;50324.75;5060817;28;20048;-70
2021/10/17 02:04:00;;;;;;;45.45;21.05;;;;;;;-149.78;100.00;50352.16;5060149;28;20061;-74
2021/10/17 02:06:26;;;;;;;42.60;20.75;;;;;;;-149.78;100.00;50326.72;5058194;28;20025;-71
2021/10/17 02:08:52;;;;;;;43.17;21.23;;;;;;;-149.78;100.00;50358.00;5055243;28;20053;-71
2021/10/17 02:11:17;;;;;;;38.95;19.48;;;;;;;-149.78;100.00;50354.09;5061193;28;20067;-70
2021/10/17 02:13:44;;;;;;;43.10;20.80;;;;;;;-149.78;100.00;50322.81;5052890;28;20403;-71
2021/10/17 02:16:10;;;;;;;44.28;21.80;;;;;;;-149.78;100.00;50342.38;5056065;28;20033;-71
2021/10/17 02:18:35;;;;;;;49.15;21.25;;;;;;;-149.78;100.00;50326.72;5056865;28;21708;-71
2021/10/17 02:21:02;;;;;;;43.30;20.60;;;;;;;-149.78;100.00;50342.38;5063266;28;20037;-71
2021/10/17 02:23:27;;;;;;;48.70;21.02;;;;;;;-149.78;100.00;50334.53;5064830;28;20067;-71
2021/10/17 02:25:53;;;;;;;45.08;21.55;;;;;;;-149.78;100.00;50379.53;5060981;28;20060;-70
2021/10/17 02:28:19;;;;;;;44.55;20.33;;;;;;;-149.78;100.00;50350.19;5055747;28;20045;-74
2021/10/17 02:30:44;;;;;;;44.45;20.88;;;;;;;-149.78;100.00;50358.00;5052254;28;20043;-74
2021/10/17 02:33:11;;;;;;;42.92;20.35;;;;;;;-149.78;100.00;50361.91;5052258;28;20608;-74
2021/10/17 02:35:37;;;;;;;45.97;21.15;;;;;;;-149.78;100.00;50358.00;5061896;28;20035;-74
2021/10/17 02:38:03;;;;;;;45.33;20.67;;;;;;;-149.78;100.00;50350.19;5061910;28;20025;-74
2021/10/17 02:40:31;;;;;;;38.17;19.60;;;;;;;-149.78;100.00;50338.44;5059823;28;20024;-70
2021/10/17 02:42:57;;;;;;;40.88;19.42;;;;;;;-149.78;100.00;50361.91;5057413;28;20056;-70
2021/10/17 02:45:23;;;;;;;42.33;19.48;;;;;;;-149.78;100.00;50330.63;5052616;28;20039;-71
2021/10/17 02:47:48;;;;;;;42.28;19.45;;;;;;;-149.78;100.00;50344.31;5064580;28;20107;-70
2021/10/17 02:50:14;;;;;;;43.38;20.10;;;;;;;-149.78;100.00;50361.91;5064532;28;20035;-70
2021/10/17 02:52:39;;;;;;;39.10;19.75;;;;;;;-149.78;100.00;50344.31;5077415;28;20920;-74
2021/10/17 02:55:05;;;;;;;44.10;18.90;;;;;;;-149.78;100.00;50344.31;5061310;28;20060;-74
2021/10/17 02:57:31;;;;;;;37.65;19.63;;;;;;;-149.78;100.00;50313.03;5060836;28;20115;-74
2021/10/17 02:59:57;;;;;;;41.33;18.67;;;;;;;-149.78;100.00;50358.00;5055372;28;20044;-70
2021/10/17 03:02:23;;;;;;;37.08;18.35;;;;;;;-149.78;100.00;50348.22;5052127;28;20033;-70
2021/10/17 03:04:49;;;;;;;38.28;18.33;;;;;;;-149.78;100.00;50383.44;5059055;28;20084;-71
2021/10/17 03:07:15;;;;;;;36.17;18.42;;;;;;;-149.78;100.00;50365.84;5063990;28;20086;-70
2021/10/17 03:09:40;;;;;;;34.05;17.00;;;;;;;-149.78;100.00;50359.97;5073195;28;20040;-71
2021/10/17 03:12:06;;;;;;;37.40;18.10;;;;;;;-149.78;100.00;50346.28;5053909;28;20036;-71
2021/10/17 03:14:32;;;;;;;36.78;18.15;;;;;;;-149.78;100.00;50367.78;5069226;28;20036;-70
2021/10/17 03:16:58;;;;;;;38.88;18.15;;;;;;;-149.78;100.00;50324.75;5054101;28;20045;-74
2021/10/17 03:19:23;;;;;;;33.95;17.45;;;;;;;-149.78;100.00;50365.84;5069118;28;20024;-70
2021/10/17 03:21:49;;;;;;;33.75;16.98;;;;;;;-149.78;100.00;50334.53;5056578;28;20029;-71
2021/10/17 03:24:15;;;;;;;33.08;16.65;;;;;;;-149.78;100.00;50299.34;5063116;28;20416;-71
2021/10/17 03:26:40;;;;;;;30.08;17.25;;;;;;;-149.78;100.00;50373.66;5061176;28;20492;-70
2021/10/17 03:29:06;;;;;;;32.55;16.15;;;;;;;-149.78;100.00;50361.91;5053009;28;20051;-70
2021/10/17 03:31:34;;;;;;;40.60;18.10;;;;;;;-149.78;100.00;50346.28;5062949;28;20062;-71
2021/10/17 03:34:00;;;;;;;37.38;17.20;;;;;;;-149.78;100.00;50326.72;5052877;28;20069;-70
2021/10/17 03:36:26;;;;;;;36.55;16.30;;;;;;;-149.78;100.00;50358.00;5053135;28;20049;-70
2021/10/17 03:38:52;;;;;;;30.55;15.52;;;;;;;-149.78;100.00;50354.09;5057592;28;20162;-71
2021/10/17 03:41:18;;;;;;;40.92;17.15;;;;;;;-149.78;100.00;50354.09;5065114;28;20033;-70
2021/10/17 03:43:43;;;;;;;35.30;16.58;;;;;;;-149.78;100.00;50350.19;5050429;28;20036;-70
2021/10/17 03:46:09;;;;;;;36.25;15.75;;;;;;;-149.78;100.00;50359.97;5064924;28;20112;-70
2021/10/17 03:48:35;;;;;;;35.63;16.60;;;;;;;-149.78;100.00;50352.16;5048793;28;20044;-70
2021/10/17 03:51:03;;;;;;;33.78;16.73;;;;;;;-149.78;100.00;50348.22;5051980;28;20037;-70
2021/10/17 03:53:29;;;;;;;35.38;16.77;;;;;;;-149.78;100.00;50367.78;5060083;28;20485;-71
2021/10/17 03:55:55;;;;;;;36.05;16.05;;;;;;;-149.78;100.00;50385.38;5053702;28;20033;-70
2021/10/17 03:58:21;;;;;;;35.22;17.00;;;;;;;-149.78;100.00;50377.56;5051171;28;20033;-70
2021/10/17 04:00:46;;;;;;;33.65;16.27;;;;;;;-149.78;100.00;50352.16;5065853;28;20450;-70
2021/10/17 04:03:12;;;;;;;38.75;17.15;;;;;;;-149.78;100.00;50361.91;5067867;28;20106;-70
2021/10/17 04:05:38;;;;;;;32.20;16.27;;;;;;;-149.78;100.00;50369.75;5051406;28;20021;-70
2021/10/17 04:08:04;;;;;;;35.97;16.90;;;;;;;-149.78;100.00;50381.47;5063955;28;20547;-70
2021/10/17 04:10:30;;;;;;;35.13;16.42;;;;;;;-149.78;100.00;50361.91;5052553;28;20037;-70
2021/10/17 04:12:55;;;;;;;32.67;16.35;;;;;;;-149.78;100.00;50358.00;5061923;28;20454;-70
2021/10/17 04:15:23;;;;;;;41.50;18.10;;;;;;;-149.78;100.00;50348.22;5064832;28;20041;-70
2021/10/17 04:17:49;;;;;;;37.17;16.73;;;;;;;-149.78;100.00;50350.19;5050967;28;20052;-70
2021/10/17 04:20:14;;;;;;;33.95;17.60;;;;;;;-149.78;100.00;50334.53;5054236;28;20067;-70
2021/10/17 04:22:41;;;;;;;34.33;16.65;;;;;;;-149.78;100.00;50369.75;5059539;28;20036;-70
2021/10/17 04:25:07;;;;;;;32.80;17.77;;;;;;;-149.78;100.00;50334.53;5057864;28;20123;-69
2021/10/17 04:27:32;;;;;;;38.72;17.88;;;;;;;-149.78;100.00;50350.19;5055823;28;20043;-70
2021/10/17 04:29:58;;;;;;;30.98;16.05;;;;;;;-149.78;100.00;50342.38;5056855;28;20060;-70
2021/10/17 04:32:27;;;;;;;39.03;18.13;;;;;;;-149.78;100.00;50342.38;5058842;28;20052;-70
2021/10/17 04:34:52;;;;;;;39.28;17.60;;;;;;;-149.78;100.00;50387.34;5054754;28;20087;-70
2021/10/17 04:37:18;;;;;;;33.65;16.80;;;;;;;-149.78;100.00;50358.00;5049610;28;20029;-70
2021/10/17 04:39:44;;;;;;;34.65;17.30;;;;;;;-149.78;100.00;50361.91;5057647;28;20451;-70
2021/10/17 04:42:10;;;;;;;34.15;18.17;;;;;;;-149.78;100.00;50381.47;5058056;28;20124;-70
2021/10/17 04:44:37;;;;;;;37.38;17.65;;;;;;;-149.78;100.00;50342.38;5043332;28;20115;-70
2021/10/17 04:47:03;;;;;;;34.60;17.50;;;;;;;-149.78;100.00;50361.91;5061776;28;20033;-71
2021/10/17 04:49:29;;;;;;;40.47;18.88;;;;;;;-149.78;100.00;50346.28;5066190;28;20037;-71
2021/10/17 04:51:55;;;;;;;37.75;17.65;;;;;;;-149.78;100.00;50373.66;5052789;28;20041;-70
2021/10/17 04:54:22;;;;;;;36.60;17.95;;;;;;;-149.78;100.00;50342.38;5058726;28;20035;-71
2021/10/17 04:56:47;;;;;;;35.83;17.90;;;;;;;-149.78;100.00;50369.75;5054324;28;20044;-70
2021/10/17 04:59:16;;;;;;;35.65;17.30;;;;;;;-149.78;100.00;50350.19;5075714;28;20039;-71
2021/10/17 05:01:41;;;;;;;33.83;17.83;;;;;;;-149.78;100.00;50379.53;5022159;28;20055;-70
2021/10/17 05:04:07;;;;;;;34.53;17.63;;;;;;;-149.78;100.00;50334.53;5060486;28;20368;-70
2021/10/17 05:06:33;;;;;;;35.20;17.95;;;;;;;-149.78;100.00;50389.31;5046600;28;20037;-71
2021/10/17 05:08:59;;;;;;;34.90;17.08;;;;;;;-149.78;100.00;50346.28;5048536;28;20039;-71
2021/10/17 05:11:25;;;;;;;40.88;18.88;;;;;;;-149.78;100.00;50342.38;5048463;28;20033;-70
2021/10/17 05:13:52;;;;;;;40.72;19.15;;;;;;;-149.78;100.00;50369.75;5054136;28;20064;-70
2021/10/17 05:16:18;;;;;;;38.00;17.73;;;;;;;-149.78;100.00;50324.75;5058623;28;20056;-70
2021/10/17 05:18:43;;;;;;;36.95;18.23;;;;;;;-149.78;100.00;50354.09;5066487;28;20050;-70
2021/10/17 05:21:09;;;;;;;40.70;18.70;;;;;;;-149.78;100.00;50385.38;5054813;28;20025;-70
2021/10/17 05:23:36;;;;;;;41.75;19.98;;;;;;;-149.78;100.00;50342.38;5055714;28;20040;-70
2021/10/17 05:26:03;;;;;;;35.22;17.60;;;;;;;-149.78;100.00;50369.75;5052799;28;20033;-70
2021/10/17 05:28:32;;;;;;;34.60;17.65;;;;;;;-149.78;100.00;50367.78;5054029;28;20033;-70
2021/10/17 05:31:03;;;;;;;39.22;18.90;;;;;;;-149.78;100.00;50350.19;5055805;28;20392;-70
2021/10/17 05:33:30;;;;;;;36.25;17.98;;;;;;;-149.78;100.00;50342.38;5058599;28;20567;-70
2021/10/17 05:35:56;;;;;;;37.80;18.55;;;;;;;-149.78;100.00;50377.56;5055483;28;20029;-70
2021/10/17 05:38:22;;;;;;;35.22;17.67;;;;;;;-149.78;100.00;50369.75;5064606;28;20029;-70
2021/10/17 05:40:48;;;;;;;36.10;17.42;;;;;;;-149.78;100.00;50326.72;5063857;28;20086;-69
2021/10/17 05:43:13;;;;;;;37.55;17.40;;;;;;;-149.78;100.00;50346.28;5072388;28;20074;-70
2021/10/17 05:45:39;;;;;;;36.25;17.38;;;;;;;-149.78;100.00;50346.28;5062751;28;20587;-69
2021/10/17 05:48:05;;;;;;;33.90;16.88;;;;;;;-149.78;100.00;50356.06;5060012;28;20475;-69
2021/10/17 05:50:30;;;;;;;30.30;16.25;;;;;;;-149.78;100.00;50350.19;5074290;28;20115;-70
2021/10/17 05:52:56;;;;;;;29.52;16.23;;;;;;;-149.78;100.00;50389.31;5068100;28;20115;-70
2021/10/17 05:55:22;;;;;;;31.60;14.88;;;;;;;-149.78;100.00;50385.38;5055176;28;20772;-69
2021/10/17 05:57:48;;;;;;;25.98;13.82;;;;;;;-149.78;100.00;50412.78;5055294;28;20048;-69
2021/10/17 06:00:14;;;;;;;26.42;13.38;;;;;;;-149.78;100.00;50373.66;5072898;28;20032;-69
2021/10/17 06:02:41;;;;;;;24.00;11.95;;;;;;;-149.78;100.00;50344.31;5065971;28;20041;-69
2021/10/17 06:05:07;;;;;;;22.55;11.40;;;;;;;-149.78;100.00;50371.69;5064241;28;20078;-69
2021/10/17 06:07:37;;;;;;;20.38;11.02;;;;;;;-149.78;100.00;50354.09;5058175;28;20033;-70
2021/10/17 06:10:08;;;;;;;15.65;8.73;;;;;;;-149.78;100.00;50330.63;5067336;28;20035;-70
2021/10/17 06:12:36;;;;;;;16.52;9.23;;;;;;;-149.78;100.00;50354.09;5062533;28;20090;-70
2021/10/17 06:15:03;;;;;;;15.15;8.20;;;;;;;-149.78;100.00;50303.25;5062801;28;20029;-70
2021/10/17 06:17:29;;;;;;;16.52;9.05;;;;;;;-149.78;100.00;50365.84;5060429;28;20037;-70
2021/10/17 06:19:54;;;;;;;13.30;7.80;;;;;;;-149.78;100.00;50389.31;5058512;28;20036;-70
2021/10/17 06:22:20;;;;;;;13.38;8.35;;;;;;;-149.78;100.00;50377.56;5055865;28;20399;-70
2021/10/17 06:24:46;;;;;;;16.60;8.75;;;;;;;-149.78;100.00;50313.03;5062613;28;20028;-70
2021/10/17 06:27:11;;;;;;;13.85;8.25;;;;;;;-149.78;100.00;50377.56;5066785;28;20098;-69
2021/10/17 06:29:37;;;;;;;15.88;8.63;;;;;;;-149.78;100.00;50383.44;5060748;28;20040;-71
2021/10/17 06:32:03;;;;;;;18.65;8.68;;;;;;;-149.78;100.00;50389.31;5056368;28;20091;-71
2021/10/17 06:34:29;;;;;;;15.90;8.70;;;;;;;-149.78;100.00;50354.09;5033463;28;20030;-74
2021/10/17 06:36:55;;;;;;;14.05;8.15;;;;;;;-149.78;100.00;50358.00;5039133;28;20133;-75
2021/10/17 06:39:21;;;;;;;16.00;8.73;;;;;;;-149.78;100.00;50334.53;5036999;28;20466;-74
2021/10/17 06:41:47;;;;;;;16.55;8.77;;;;;;;-149.78;100.00;50344.31;5036721;28;20108;-78
2021/10/17 06:44:13;;;;;;;16.27;8.73;;;;;;;-149.78;100.00;50350.19;5038324;28;20033;-73
2021/10/17 06:46:39;;;;;;;17.63;8.45;;;;;;;-149.78;100.00;50338.44;5034075;28;20559;-77
2021/10/17 06:49:05;;;;;;;13.23;7.68;;;;;;;-149.78;100.00;50383.44;5033606;28;20041;-77
2021/10/17 06:51:30;;;;;;;15.05;7.43;;;;;;;-149.78;100.00;50361.91;5031508;28;20477;-77
2021/10/17 06:53:56;;;;;;;17.05;8.65;;;;;;;-149.78;100.00;50361.91;5034520;28;20044;-77
2021/10/17 06:56:22;;;;;;;18.08;8.73;;;;;;;-149.78;100.00;50373.66;5032210;28;20033;-74
2021/10/17 06:58:47;;;;;;;13.48;7.70;;;;;;;-149.78;100.00;50346.28;5049485;28;20110;-75
2021/10/17 07:01:13;;;;;;;14.30;8.05;;;;;;;-149.78;100.00;50397.13;5044481;28;20075;-75
2021/10/17 07:03:39;;;;;;;15.45;8.13;;;;;;;-149.78;100.00;50346.28;5032267;28;20116;-74
2021/10/17 07:06:05;;;;;;;13.63;7.70;;;;;;;-149.78;100.00;50373.66;5042685;28;20120;-78
2021/10/17 07:08:31;;;;;;;13.32;7.53;;;;;;;-149.78;100.00;50377.56;5044768;28;20025;-76
2021/10/17 07:10:57;;;;;;;14.57;8.20;;;;;;;-149.78;100.00;50358.00;5043702;28;20029;-78
2021/10/17 07:13:23;;;;;;;12.85;7.60;;;;;;;-149.78;100.00;50358.00;5044298;28;20083;-77
2021/10/17 07:15:49;;;;;;;12.90;8.40;;;;;;;-149.78;100.00;50354.09;5042009;28;20033;-79
2021/10/17 07:18:14;;;;;;;13.30;8.00;;;;;;;-149.78;100.00;50367.78;5040143;28;20380;-77
2021/10/17 07:20:40;;;;;;;12.85;7.63;;;;;;;-149.78;100.00;50342.38;5041638;28;20045;-74
2021/10/17 07:23:06;;;;;;;17.45;8.43;;;;;;;-149.78;100.00;50326.72;5040334;28;20029;-74
2021/10/17 07:25:31;;;;;;;13.23;8.20;;;;;;;-149.78;100.00;50371.69;5039207;28;20124;-73
2021/10/17 07:27:57;;;;;;;11.95;7.78;;;;;;;-149.78;100.00;50348.22;5043456;28;20047;-73
2021/10/17 07:30:23;;;;;;;12.63;7.82;;;;;;;-149.78;100.00;50340.41;5041031;28;20041;-74
2021/10/17 07:32:49;;;;;;;16.77;7.75;;;;;;;-149.78;100.00;50369.75;5051598;28;20052;-76
2021/10/17 07:35:14;;;;;;;11.40;7.10;;;;;;;-149.78;100.00;50354.09;5065280;28;20037;-74
2021/10/17 07:37:40;;;;;;;42.47;17.15;;;;;;;-149.78;100.00;50361.91;5062093;28;20078;-74
2021/10/17 07:40:06;;;;;;;23.67;11.13;;;;;;;-149.78;100.00;50365.84;5062652;28;20045;-74
2021/10/17 07:42:32;;;;;;;23.45;17.00;;;;;;;-149.78;100.00;50346.28;5061511;28;20107;-75
2021/10/17 07:44:58;;;;;;;16.58;9.15;;;;;;;-149.78;100.00;50358.00;5064190;28;20140;-74
2021/10/17 07:47:24;;;;;;;15.50;7.72;;;;;;;-149.78;100.00;50361.91;5058287;28;20549;-75
2021/10/17 07:49:50;;;;;;;14.77;8.05;;;;;;;-149.78;100.00;50338.44;5056416;28;20546;-75
2021/10/17 07:52:16;;;;;;;14.30;7.93;;;;;;;-149.78;100.00;50373.66;5066300;28;20028;-73
2021/10/17 07:54:42;;;;;;;19.05;9.27;;;;;;;-149.78;100.00;50361.91;5058337;28;20036;-74
2021/10/17 07:57:09;;;;;;;13.48;7.68;;;;;;;-149.78;100.00;50354.09;5057949;28;20086;-73
2021/10/17 07:59:35;;;;;;;15.00;7.45;;;;;;;-149.78;100.00;50352.16;5059811;28;20044;-75
2021/10/17 08:02:01;;;;;;;12.07;7.57;;;;;;;-149.78;100.00;50385.38;5054749;28;20043;-74
2021/10/17 08:04:27;;;;;;;12.52;7.57;;;;;;;-149.78;100.00;50373.66;5059147;28;20218;-75
2021/10/17 08:06:53;;;;;;;10.93;6.47;;;;;;;-149.78;100.00;50358.00;5062270;28;20040;-72
2021/10/17 08:09:18;;;;;;;10.63;6.40;;;;;;;-149.78;100.00;50393.22;5058014;28;20039;-74
2021/10/17 08:11:44;;;;;;;12.02;6.03;;;;;;;-149.78;100.00;50379.53;5064609;28;20123;-74
2021/10/17 08:14:10;;;;;;;11.90;6.55;;;;;;;-149.78;100.00;50324.75;5058853;28;20395;-72
2021/10/17 08:16:35;;;;;;;11.60;7.03;;;;;;;-149.78;100.00;50326.72;5058446;28;20047;-74
2021/10/17 08:19:03;;;;;;;10.52;6.20;;;;;;;-149.78;100.00;50408.84;5057122;28;20150;-70
2021/10/17 08:21:33;;;;;;;10.10;6.07;;;;;;;-149.78;100.00;50350.19;5060248;28;20033;-72
2021/10/17 08:23:59;;;;;;;10.95;6.57;;;;;;;-149.78;100.00;50365.84;5050716;28;20037;-72
2021/10/17 08:26:24;;;;;;;10.98;6.03;;;;;;;-149.78;100.00;50373.66;5064059;28;20073;-73
2021/10/17 08:28:50;;;;;;;12.07;6.32;;;;;;;-149.78;100.00;50344.31;5061996;28;20086;-75
2021/10/17 08:31:16;;;;;;;11.13;6.97;;;;;;;-149.78;100.00;50338.44;5060088;28;20027;-74
2021/10/17 08:33:42;;;;;;;10.85;6.35;;;;;;;-149.78;100.00;50336.50;5045446;28;20049;-74
2021/10/17 08:36:08;;;;;;;10.32;6.75;;;;;;;-149.78;100.00;50324.75;5032041;28;20053;-74
2021/10/17 08:38:34;;;;;;;11.10;6.60;;;;;;;-149.78;100.00;50381.47;5062080;28;20059;-74
2021/10/17 08:41:00;;;;;;;10.77;6.40;;;;;;;-149.78;100.00;50350.19;5061336;28;20032;-74
2021/10/17 08:43:26;;;;;;;10.13;5.90;;;;;;;-149.78;100.00;50330.63;5060272;28;20024;-73
2021/10/17 08:45:52;;;;;;;9.57;6.00;;;;;;;-149.78;100.00;50361.91;5061405;28;20503;-74
2021/10/17 08:48:18;;;;;;;10.45;5.75;;;;;;;-149.78;100.00;50371.69;5064479;28;20021;-73
2021/10/17 08:50:44;;;;;;;10.45;6.15;;;;;;;-149.78;100.00;50344.31;5044694;28;20045;-74
2021/10/17 08:53:11;;;;;;;8.98;5.35;;;;;;;-149.78;100.00;50309.13;5043297;28;20085;-74
2021/10/17 08:55:36;;;;;;;7.30;4.68;;;;;;;-149.78;100.00;50344.31;5059543;28;20033;-74
2021/10/17 08:58:02;;;;;;;8.77;5.32;;;;;;;-149.78;100.00;50328.69;5056627;28;20421;-73
2021/10/17 09:00:34;;;;;;;10.57;5.60;;;;;;;-149.78;100.00;50361.91;5063587;28;20040;-74
2021/10/17 09:03:01;;;;;;;8.27;5.53;;;;;;;-149.78;100.00;50358.00;5066030;28;20468;-73
2021/10/17 09:05:33;;;;;;;8.65;5.78;;;;;;;-149.78;100.00;50361.91;5062868;28;20485;-73
2021/10/17 09:07:59;;;;;;;8.02;5.45;;;;;;;-149.78;100.00;50361.91;5064423;28;20082;-74
2021/10/17 09:10:25;;;;;;;7.60;5.10;;;;;;;-149.78;100.00;50326.72;5063440;28;20388;-75
2021/10/17 09:12:51;;;;;;;8.73;5.45;;;;;;;-149.78;100.00;50361.91;5058539;28;20025;-74
2021/10/17 09:15:31;;;;;;;8.52;5.35;;;;;;;-149.78;100.00;50346.28;5065821;28;20460;-74
2021/10/17 09:18:16;;;;;;;7.63;5.50;;;;;;;-149.78;100.00;50358.00;5062358;28;20407;-74
2021/10/17 09:20:47;;;;;;;12.00;5.85;;;;;;;-149.78;100.00;50350.19;5055437;28;20029;-73
2021/10/17 09:23:14;;;;;;;8.40;5.20;;;;;;;-149.78;100.00;50342.38;5057749;28;20033;-74
2021/10/17 09:25:40;;;;;;;10.23;5.63;;;;;;;-149.78;100.00;50354.09;5055624;28;20052;-73
2021/10/17 09:28:24;;;;;;;7.35;4.90;;;;;;;-149.78;100.00;50377.56;5057219;28;20481;-74
2021/10/17 09:30:58;;;;;;;7.13;4.88;;;;;;;-149.78;100.00;50346.28;5053337;28;20017;-74
2021/10/17 09:33:24;;;;;;;8.52;4.55;;;;;;;-149.78;100.00;50361.91;5062403;28;20053;-74
2021/10/17 09:35:50;;;;;;;6.88;4.80;;;;;;;-149.78;100.00;50367.78;5055712;28;20107;-73
2021/10/17 09:38:17;;;;;;;7.50;4.85;;;;;;;-149.78;100.00;50338.44;5069486;28;20025;-73
2021/10/17 09:40:45;;;;;;;7.55;4.65;;;;;;;-149.78;100.00;50332.59;5068317;28;20044;-73
2021/10/17 09:43:21;;;;;;;7.50;5.20;;;;;;;-149.78;100.00;50338.44;5056507;28;20036;-73
2021/10/17 09:45:47;;;;;;;6.85;4.63;;;;;;;-149.78;100.00;50369.75;5058077;28;20117;-73
2021/10/17 09:48:31;;;;;;;8.60;5.40;;;;;;;-149.78;100.00;50326.72;5051330;28;20029;-73
2021/10/17 09:51:09;;;;;;;8.45;5.30;;;;;;;-149.78;100.00;50354.09;5063749;28;20039;-73
2021/10/17 09:53:43;;;;;;;7.05;4.90;;;;;;;-149.78;100.00;50361.91;5063443;28;20171;-74
2021/10/17 09:56:25;;;;;;;8.65;5.35;;;;;;;-149.78;100.00;50346.28;5053557;28;20037;-73
2021/10/17 09:58:52;;;;;;;7.88;5.28;;;;;;;-149.78;100.00;50338.44;5058468;28;20043;-73
2021/10/17 10:01:22;;;;;;;7.97;4.95;;;;;;;-149.78;100.00;50309.13;5070050;28;20033;-73
2021/10/17 10:03:50;;;;;;;7.05;4.53;;;;;;;-149.78;100.00;50361.91;5068839;28;20033;-74
2021/10/17 10:06:16;;;;;;;7.07;4.60;;;;;;;-149.78;100.00;50373.66;5055940;28;20048;-73
2021/10/17 10:08:44;;;;;;;9.05;4.30;;;;;;;-149.78;100.00;50311.06;5070587;28;20031;-73
2021/10/17 10:11:10;;;;;;;6.00;4.13;;;;;;;-149.78;100.00;50346.28;5062020;28;20483;-74
2021/10/17 10:13:36;;;;;;;9.02;3.65;;;;;;;-149.78;100.00;50354.09;5055264;28;20083;-75
2021/10/17 10:16:03;;;;;;;4.68;3.42;;;;;;;-149.78;100.00;50358.00;5056467;28;20040;-73
2021/10/17 10:18:31;;;;;;;5.07;3.45;;;;;;;-149.78;100.00;50346.28;5062145;28;20338;-75
2021/10/17 10:20:58;;;;;;;5.05;3.35;;;;;;;-149.78;100.00;50322.81;5061143;28;20388;-75
2021/10/17 10:23:25;;;;;;;4.95;3.25;;;;;;;-149.78;100.00;50356.06;5065657;28;20052;-74
2021/10/17 10:25:52;;;;;;;5.95;3.35;;;;;;;-149.78;100.00;50361.91;5069244;28;21404;-75
2021/10/17 10:28:20;;;;;;;5.25;3.28;;;;;;;-149.78;100.00;50340.41;5059946;28;20041;-75
2021/10/17 10:30:45;;;;;;;6.03;3.72;;;;;;;-149.78;100.00;50346.28;5056848;28;20060;-75
2021/10/17 10:33:13;;;;;;;4.82;3.53;;;;;;;-149.78;100.00;50328.69;5052827;28;20083;-75
2021/10/17 10:36:12;;;;;;;4.68;3.47;;;;;;;-149.78;100.00;50361.91;5061242;28;20033;-75
2021/10/17 10:38:53;;;;;;;5.68;3.63;;;;;;;-149.78;100.00;50326.72;5057178;28;20121;-75
2021/10/17 10:41:28;;;;;;;4.88;3.45;;;;;;;-149.78;100.00;50334.53;5052946;28;20037;-72
2021/10/17 10:44:29;;;;;;;5.43;3.65;;;;;;;-149.78;100.00;50287.59;5063087;28;20029;-73
2021/10/17 10:46:57;;;;;;;4.85;3.40;;;;;;;-149.78;100.00;50326.72;5060846;28;20161;-71
2021/10/17 10:49:46;;;;;;;4.72;3.45;;;;;;;-149.78;100.00;50295.44;5054350;28;20131;-73
2021/10/17 10:52:23;;;;;;;5.78;3.83;;;;;;;-149.78;100.00;50295.44;5064057;28;20067;-74
2021/10/17 10:54:54;;;;;;;5.57;4.03;;;;;;;-149.78;100.00;50338.44;5070663;28;20033;-74
2021/10/17 10:57:30;;;;;;;6.30;4.00;;;;;;;-149.78;100.00;50361.91;5073061;28;20063;-74
2021/10/17 11:00:15;;;;;;;6.85;4.07;;;;;;;-149.78;100.00;50330.63;5062341;28;20413;-74